Airfield :
LOGIN :

Register | Disclaimer

   EN    FR    IT 

 










Legend :    VFR   Marginal VFR   IFR   Intensive IFR   Very Intensive IFR
Visi :
Ceiling :
>= 8 km
>= 3000ft
5 to 8 km
1000 to 3000 ft
1500m to 5 km
500 to 1000 ft
800 to 1500m
200 to 500 ft
< 800m
< 200 ft
Symbols :   Thunderstorms  Fog  Heavy snow  Heavy precipitations  Wind > 20 kt
SIGMETs :     Misc.  Thunderstorms  Icing  Turbulence  Mountain Waves  Volcanic Ashes






- Airport Elevation : -11 ft
- IATA code : AMS


EHAM - Amsterdam Schiphol

CURRENT METAR :
  • 151955Z 09005KT 060V120 8000 BKN028 05/03 Q1003 BECMG 7000

EXPIRED METARs :
  • 151925Z 08007KT 8000 BKN029 05/03 Q1003 BECMG 7000
  • 151855Z 08006KT 8000 FEW020 BKN029 05/03 Q1003 BECMG 7000
  • 151825Z 08006KT 8000 FEW020 BKN029 05/03 Q1002 BECMG 7000
  • 151755Z 08008KT 8000 FEW017 BKN021 05/03 Q1002 BECMG 7000
  • 151725Z 07007KT 8000 FEW017 BKN023 05/03 Q1002 BECMG 7000

TAF TAF EHAM
Valid from the 15 at 18:00 until the 17 at 00:00 UTC


151700Z 1518/1624 08005KT 8000 BKN025
BECMG 1519/1522 14003KT 5000 BR MIFG FEW025
PROB30 1600/1609 2500 BCFG
BECMG 1608/1611 20008KT 9999 NSW
BECMG 1619/1622 7000
PROB40 1621/1624 4000 BR



MET'MAP, your aeronautical weather chart ! - Copyright ORBIFLY December 2007 - Disclaimer

ORBIFLY MET'MAP TEAM :

Programming & Development : Alexandra Zaïnal
Concept & Development : Baudouin d'Aumeries
Co-Development & Prog : Marc-Olivier Méhu
Technical & hardware support : Manuel Goepfert

Contact : metmap@orbifly.com




SOURCES & CREDITS :

   NOAA